createdAt,value
2018-05-15T00:00:42.568Z,14.93
2018-05-15T00:03:08.965Z,15.00
2018-05-15T00:05:35.393Z,15.06
2018-05-15T00:08:02.529Z,15.07
2018-05-15T00:10:29.006Z,15.05
2018-05-15T00:12:55.454Z,15.04
2018-05-15T00:15:21.925Z,15.01
2018-05-15T00:17:48.418Z,15.01
2018-05-15T00:20:14.838Z,15.07
2018-05-15T00:22:41.271Z,15.03
2018-05-15T00:25:07.684Z,14.92
2018-05-15T00:27:34.192Z,14.98
2018-05-15T00:30:00.610Z,15.00
2018-05-15T00:32:27.054Z,14.96
2018-05-15T00:34:53.469Z,14.93
2018-05-15T00:37:19.911Z,14.92
2018-05-15T00:39:46.322Z,14.90
2018-05-15T00:42:12.687Z,14.95
2018-05-15T00:44:39.131Z,15.04
2018-05-15T00:47:05.578Z,15.14
2018-05-15T00:49:32.002Z,15.18
2018-05-15T00:51:58.375Z,15.11
2018-05-15T00:54:24.809Z,15.05
2018-05-15T00:56:51.291Z,15.07
2018-05-15T00:59:17.668Z,15.03
2018-05-15T01:01:44.237Z,14.98
2018-05-15T01:04:10.603Z,14.93
2018-05-15T01:06:37.065Z,14.88
2018-05-15T01:09:03.560Z,14.97
2018-05-15T01:11:29.970Z,14.94
2018-05-15T01:13:56.453Z,14.93
2018-05-15T01:16:22.949Z,14.97
2018-05-15T01:18:49.313Z,15.03
2018-05-15T01:21:15.773Z,15.02
2018-05-15T01:23:42.126Z,15.07
2018-05-15T01:26:08.673Z,15.05
2018-05-15T01:28:35.137Z,15.02
2018-05-15T01:31:01.600Z,15.07
2018-05-15T01:33:28.066Z,15.09
2018-05-15T01:35:54.690Z,15.03
2018-05-15T01:38:21.088Z,15.01
2018-05-15T01:40:47.483Z,15.00
2018-05-15T01:43:13.854Z,15.00
2018-05-15T01:45:40.253Z,15.00
2018-05-15T01:48:06.687Z,15.01
2018-05-15T01:50:33.020Z,14.91
2018-05-15T01:52:59.380Z,14.95
2018-05-15T01:55:25.709Z,15.02
2018-05-15T01:57:52.141Z,15.00
2018-05-15T02:00:18.606Z,14.96
2018-05-15T02:02:45.018Z,14.93
2018-05-15T02:05:11.397Z,14.97
2018-05-15T02:07:37.909Z,14.90
2018-05-15T02:10:04.288Z,14.89
2018-05-15T02:12:30.650Z,14.88
2018-05-15T02:14:57.109Z,14.89
2018-05-15T02:17:23.507Z,14.85
2018-05-15T02:19:49.881Z,14.81
2018-05-15T02:22:16.298Z,14.83
2018-05-15T02:24:42.623Z,14.72
2018-05-15T02:27:09.072Z,14.68
2018-05-15T02:29:35.464Z,14.69
2018-05-15T02:32:01.840Z,14.63
2018-05-15T02:34:28.205Z,14.61
2018-05-15T02:36:54.630Z,14.60
2018-05-15T02:39:21.044Z,14.59
2018-05-15T02:41:47.498Z,14.54
2018-05-15T02:44:13.923Z,14.49
2018-05-15T02:46:40.369Z,14.41
2018-05-15T02:49:06.701Z,14.50
2018-05-15T02:51:33.138Z,14.43
2018-05-15T02:53:59.600Z,14.44
2018-05-15T02:56:26.059Z,14.47
2018-05-15T02:58:52.564Z,14.54
2018-05-15T03:01:18.999Z,14.57
2018-05-15T03:03:45.371Z,14.61
2018-05-15T03:06:11.895Z,14.58
2018-05-15T03:08:38.353Z,14.59
2018-05-15T03:11:04.862Z,14.63
2018-05-15T03:13:31.423Z,14.73
2018-05-15T03:15:57.833Z,14.72
2018-05-15T03:18:24.333Z,14.80
2018-05-15T03:20:50.865Z,14.87
2018-05-15T03:23:17.299Z,14.94
2018-05-15T03:25:43.666Z,14.97
2018-05-15T03:28:10.220Z,15.04
2018-05-15T03:30:36.579Z,15.20
2018-05-15T03:33:02.957Z,15.20
2018-05-15T03:35:29.438Z,15.29
2018-05-15T03:37:55.946Z,15.55
2018-05-15T03:40:22.317Z,15.89
2018-05-15T03:42:48.742Z,16.35
2018-05-15T03:45:15.152Z,16.90
2018-05-15T03:47:41.692Z,16.96
2018-05-15T03:50:08.142Z,16.58
2018-05-15T03:52:34.545Z,16.18
2018-05-15T03:55:01.036Z,16.06
2018-05-15T03:57:27.503Z,15.96
2018-05-15T03:59:53.877Z,16.00
2018-05-15T04:02:32.425Z,15.72
2018-05-15T04:05:10.802Z,15.91
2018-05-15T04:07:49.442Z,15.77
2018-05-15T04:10:15.910Z,15.66
2018-05-15T04:12:42.268Z,15.70
2018-05-15T04:15:08.689Z,15.74
2018-05-15T04:17:35.117Z,15.65
2018-05-15T04:20:01.545Z,15.70
2018-05-15T04:22:27.932Z,15.56
2018-05-15T04:24:54.380Z,15.57
2018-05-15T04:27:20.872Z,15.67
2018-05-15T04:29:47.241Z,15.75
2018-05-15T04:32:13.629Z,15.90
2018-05-15T04:34:39.941Z,16.03
2018-05-15T04:37:06.436Z,16.07
2018-05-15T04:39:32.827Z,16.28
2018-05-15T04:41:59.305Z,16.37
2018-05-15T04:44:25.936Z,17.44
2018-05-15T04:46:52.442Z,17.64
2018-05-15T04:49:18.907Z,17.08
2018-05-15T04:51:45.242Z,16.86
2018-05-15T04:54:11.622Z,16.43
2018-05-15T04:56:38.094Z,16.33
2018-05-15T04:59:04.552Z,16.19
2018-05-15T05:01:30.937Z,16.34
2018-05-15T05:03:57.450Z,17.12
2018-05-15T05:06:23.905Z,17.12
2018-05-15T05:08:50.236Z,17.59
2018-05-15T05:11:16.897Z,17.37
2018-05-15T05:13:43.617Z,17.65
2018-05-15T05:16:10.048Z,18.06
2018-05-15T05:18:36.450Z,18.05
2018-05-15T05:21:02.898Z,17.64
2018-05-15T05:23:29.258Z,17.71
2018-05-15T05:25:55.679Z,17.33
2018-05-15T05:28:22.263Z,17.05
2018-05-15T05:30:48.601Z,17.21
2018-05-15T05:33:15.047Z,17.50
2018-05-15T05:35:41.498Z,18.41
2018-05-15T05:38:07.930Z,18.71
2018-05-15T05:40:34.544Z,19.33
2018-05-15T05:43:01.203Z,21.02
2018-05-15T05:45:27.991Z,21.78
2018-05-15T05:47:54.483Z,20.68
2018-05-15T05:50:20.927Z,21.28
2018-05-15T05:52:47.363Z,21.25
2018-05-15T05:55:13.823Z,20.99
2018-05-15T05:57:40.299Z,21.55
2018-05-15T06:00:06.716Z,22.34
2018-05-15T06:02:33.175Z,22.56
2018-05-15T06:04:59.708Z,22.20
2018-05-15T06:07:26.766Z,21.87
2018-05-15T06:09:53.189Z,22.00
2018-05-15T06:12:19.645Z,22.06
2018-05-15T06:14:46.439Z,21.68
2018-05-15T06:17:12.938Z,22.10
2018-05-15T06:19:39.311Z,21.93
2018-05-15T06:22:05.697Z,21.83
2018-05-15T06:24:32.135Z,21.79
2018-05-15T06:26:58.510Z,22.12
2018-05-15T06:29:25.744Z,22.28
2018-05-15T06:31:52.106Z,22.46
2018-05-15T06:34:18.496Z,22.80
2018-05-15T06:36:44.884Z,23.21
2018-05-15T06:39:11.213Z,23.56
2018-05-15T06:41:37.602Z,23.70
2018-05-15T06:44:03.967Z,23.87
2018-05-15T06:46:30.345Z,24.36
2018-05-15T06:48:56.717Z,23.52
2018-05-15T06:51:23.141Z,23.49
2018-05-15T06:53:49.560Z,22.97
2018-05-15T06:56:15.954Z,22.37
2018-05-15T06:58:42.401Z,22.78
2018-05-15T07:01:08.728Z,23.59
2018-05-15T07:03:35.082Z,23.65
2018-05-15T07:06:01.587Z,23.71
2018-05-15T07:08:28.077Z,23.96
2018-05-15T07:10:54.557Z,23.65
2018-05-15T07:13:21.028Z,23.66
2018-05-15T07:15:47.588Z,23.25
2018-05-15T07:18:14.113Z,23.65
2018-05-15T07:20:40.520Z,23.85
2018-05-15T07:23:07.003Z,23.05
2018-05-15T07:25:33.495Z,23.26
2018-05-15T07:28:00.077Z,23.57
2018-05-15T07:30:26.529Z,23.78
2018-05-15T07:32:52.919Z,24.22
2018-05-15T07:35:19.382Z,23.88
2018-05-15T07:37:45.850Z,24.32
2018-05-15T07:40:12.343Z,24.09
2018-05-15T07:42:38.815Z,24.23
2018-05-15T07:45:05.188Z,23.89
2018-05-15T07:47:31.747Z,24.51
2018-05-15T07:49:58.179Z,23.71
2018-05-15T07:52:24.604Z,23.73
2018-05-15T07:54:51.061Z,24.10
2018-05-15T07:57:17.533Z,24.43
2018-05-15T07:59:44.143Z,24.57
2018-05-15T08:02:10.805Z,25.10
2018-05-15T08:04:37.777Z,25.19
2018-05-15T08:07:05.331Z,24.54
2018-05-15T08:09:31.730Z,24.68
2018-05-15T08:11:59.157Z,24.63
2018-05-15T08:14:25.839Z,24.52
2018-05-15T08:16:52.539Z,24.35
2018-05-15T08:19:19.165Z,24.28
2018-05-15T08:21:45.545Z,24.49
2018-05-15T08:24:11.963Z,24.78
2018-05-15T08:26:38.449Z,24.77
2018-05-15T08:29:04.963Z,24.96
2018-05-15T08:31:31.399Z,24.77
2018-05-15T08:33:57.818Z,24.87
2018-05-15T08:36:24.212Z,25.18
2018-05-15T08:38:50.723Z,25.11
2018-05-15T08:41:17.076Z,25.41
2018-05-15T08:43:43.436Z,25.50
2018-05-15T08:46:09.894Z,25.50
2018-05-15T08:48:37.274Z,25.04
2018-05-15T08:51:03.704Z,25.12
2018-05-15T08:53:30.155Z,25.77
2018-05-15T08:55:56.543Z,26.04
2018-05-15T08:58:22.976Z,26.06
2018-05-15T09:00:49.458Z,25.90
2018-05-15T09:03:15.836Z,26.33
2018-05-15T09:05:42.300Z,25.52
2018-05-15T09:08:08.774Z,25.03
2018-05-15T09:10:35.173Z,25.69
2018-05-15T09:13:01.567Z,24.84
2018-05-15T09:15:28.123Z,24.27
2018-05-15T09:17:54.654Z,24.01
2018-05-15T09:20:21.058Z,24.06
2018-05-15T09:22:47.438Z,24.96
2018-05-15T09:25:13.986Z,24.39
2018-05-15T09:27:40.466Z,23.92
2018-05-15T09:30:06.867Z,23.89
2018-05-15T09:32:33.226Z,23.24
2018-05-15T09:34:59.658Z,22.87
2018-05-15T09:37:26.159Z,23.24
2018-05-15T09:39:52.624Z,24.10
2018-05-15T09:42:19.092Z,24.21
2018-05-15T09:44:45.496Z,24.41
2018-05-15T09:47:12.065Z,24.10
2018-05-15T09:49:38.538Z,24.66
2018-05-15T09:52:04.902Z,25.43
2018-05-15T09:54:31.299Z,24.97
2018-05-15T09:56:57.786Z,24.64
2018-05-15T09:59:25.002Z,24.59
2018-05-15T10:01:51.478Z,24.95
2018-05-15T10:04:17.917Z,25.76
2018-05-15T10:06:44.329Z,25.10
2018-05-15T10:09:10.814Z,24.15
2018-05-15T10:11:37.236Z,24.21
2018-05-15T10:14:03.706Z,23.92
2018-05-15T10:16:30.124Z,23.57
2018-05-15T10:18:56.684Z,23.40
2018-05-15T10:21:23.315Z,23.60
2018-05-15T10:23:49.775Z,23.58
2018-05-15T10:26:16.230Z,24.34
2018-05-15T10:28:42.629Z,25.29
2018-05-15T10:31:09.035Z,24.78
2018-05-15T10:33:35.531Z,24.23
2018-05-15T10:36:02.874Z,24.03
2018-05-15T10:38:29.259Z,24.00
2018-05-15T10:40:55.730Z,23.62
2018-05-15T10:43:22.224Z,23.12
2018-05-15T10:45:48.609Z,22.95
2018-05-15T10:48:15.119Z,22.83
2018-05-15T10:50:41.538Z,22.44
2018-05-15T10:53:07.918Z,22.52
2018-05-15T10:55:34.332Z,23.07
2018-05-15T10:58:00.742Z,23.56
2018-05-15T11:00:27.106Z,23.59
2018-05-15T11:02:53.557Z,23.52
2018-05-15T11:05:19.959Z,23.23
2018-05-15T11:07:46.418Z,23.08
2018-05-15T11:10:12.939Z,22.89
2018-05-15T11:12:39.353Z,22.67
2018-05-15T11:15:05.718Z,22.83
2018-05-15T11:17:32.155Z,22.91
2018-05-15T11:20:10.834Z,23.26
2018-05-15T11:22:49.538Z,23.45
2018-05-15T11:25:16.027Z,23.31
2018-05-15T11:27:42.459Z,23.22
2018-05-15T11:30:08.938Z,23.32
2018-05-15T11:32:35.483Z,23.55
2018-05-15T11:35:01.828Z,23.67
2018-05-15T11:37:28.298Z,23.98
2018-05-15T11:39:54.716Z,24.36
2018-05-15T11:42:21.089Z,24.01
2018-05-15T11:44:47.551Z,23.92
2018-05-15T11:47:14.095Z,23.55
2018-05-15T11:49:41.780Z,24.77
2018-05-15T11:52:07.702Z,25.07
2018-05-15T11:54:33.630Z,25.38
2018-05-15T11:56:59.985Z,24.81
2018-05-15T11:59:26.474Z,24.18
2018-05-15T12:01:53.785Z,23.56
2018-05-15T12:04:20.163Z,23.05
2018-05-15T12:06:46.593Z,23.20
2018-05-15T12:09:13.178Z,23.51
2018-05-15T12:11:39.549Z,23.61
2018-05-15T12:14:05.975Z,23.29
2018-05-15T12:16:32.385Z,23.04
2018-05-15T12:18:58.785Z,23.42
2018-05-15T12:21:25.166Z,23.41
2018-05-15T12:23:51.615Z,23.17
2018-05-15T12:26:18.006Z,23.35
2018-05-15T12:28:44.476Z,24.02
2018-05-15T12:31:10.875Z,24.79
2018-05-15T12:33:37.340Z,25.29
2018-05-15T12:36:03.835Z,26.00
2018-05-15T12:38:30.219Z,25.80
2018-05-15T12:40:56.675Z,25.76
2018-05-15T12:43:23.140Z,25.93
2018-05-15T12:45:49.507Z,25.32
2018-05-15T12:48:15.914Z,24.98
2018-05-15T12:50:42.508Z,24.89
2018-05-15T12:53:08.925Z,25.21
2018-05-15T12:55:35.414Z,24.71
2018-05-15T12:58:01.922Z,25.00
2018-05-15T13:00:28.354Z,24.93
2018-05-15T13:02:54.798Z,24.83
2018-05-15T13:05:21.280Z,24.96
2018-05-15T13:07:47.821Z,24.96
2018-05-15T13:10:14.988Z,24.89
2018-05-15T13:12:41.631Z,24.30
2018-05-15T13:15:08.164Z,23.83
2018-05-15T13:17:34.853Z,23.71
2018-05-15T13:20:01.391Z,23.34
2018-05-15T13:22:28.727Z,23.14
2018-05-15T13:24:55.225Z,22.83
2018-05-15T13:27:21.813Z,22.62
2018-05-15T13:29:48.310Z,22.21
2018-05-15T13:32:14.824Z,21.45
2018-05-15T13:34:41.503Z,20.95
2018-05-15T13:37:08.151Z,20.40
2018-05-15T13:39:34.753Z,20.08
2018-05-15T13:42:01.312Z,19.74
2018-05-15T13:44:27.861Z,19.25
2018-05-15T13:46:54.505Z,19.15
2018-05-15T13:49:20.997Z,18.89
2018-05-15T13:51:47.526Z,18.87
2018-05-15T13:54:14.064Z,18.70
2018-05-15T13:56:40.609Z,18.40
2018-05-15T13:59:07.308Z,18.27
2018-05-15T14:01:33.712Z,17.91
2018-05-15T14:04:00.133Z,17.80
2018-05-15T14:06:26.546Z,17.60
2018-05-15T14:08:53.111Z,17.26
2018-05-15T14:11:19.668Z,17.12
2018-05-15T14:13:46.117Z,16.83
2018-05-15T14:16:12.572Z,16.79
2018-05-15T14:18:39.220Z,16.64
2018-05-15T14:21:05.686Z,16.71
2018-05-15T14:23:32.294Z,16.65
2018-05-15T14:25:58.877Z,16.56
2018-05-15T14:28:25.347Z,16.49
2018-05-15T14:30:51.908Z,16.48
2018-05-15T14:33:18.533Z,16.12
2018-05-15T14:35:45.061Z,15.80
2018-05-15T14:38:11.583Z,15.58
2018-05-15T14:40:38.156Z,15.50
2018-05-15T14:43:21.585Z,15.51
2018-05-15T14:45:48.143Z,15.48
2018-05-15T14:48:14.613Z,15.41
2018-05-15T14:50:48.291Z,15.31
2018-05-15T14:53:14.635Z,15.54
2018-05-15T14:55:41.167Z,15.49
2018-05-15T14:58:08.428Z,15.59
2018-05-15T15:00:34.953Z,15.88
2018-05-15T15:03:01.446Z,16.18
2018-05-15T15:05:28.089Z,16.35
2018-05-15T15:07:54.618Z,16.31
2018-05-15T15:10:21.071Z,16.39
2018-05-15T15:12:47.668Z,16.35
2018-05-15T15:15:14.257Z,16.55
2018-05-15T15:17:41.080Z,16.79
2018-05-15T15:20:07.684Z,17.11
2018-05-15T15:22:34.246Z,17.13
2018-05-15T15:25:00.645Z,17.39
2018-05-15T15:27:27.275Z,17.04
2018-05-15T15:29:53.705Z,16.49
2018-05-15T15:32:20.310Z,16.42
2018-05-15T15:34:46.797Z,16.68
2018-05-15T15:37:13.201Z,16.94
2018-05-15T15:39:39.721Z,16.76
2018-05-15T15:42:06.720Z,16.43
2018-05-15T15:44:33.133Z,16.30
2018-05-15T15:46:59.608Z,16.08
2018-05-15T15:49:26.153Z,16.01
2018-05-15T15:51:52.565Z,15.89
2018-05-15T15:54:19.026Z,15.63
2018-05-15T15:56:45.641Z,15.41
2018-05-15T15:59:12.101Z,15.41
2018-05-15T16:01:38.548Z,15.24
2018-05-15T16:04:05.039Z,15.16
2018-05-15T16:06:31.426Z,15.14
2018-05-15T16:08:58.183Z,15.08
2018-05-15T16:11:24.906Z,15.15
2018-05-15T16:13:51.573Z,15.16
2018-05-15T16:16:18.174Z,15.18
2018-05-15T16:18:45.277Z,15.16
2018-05-15T16:21:11.949Z,15.17
2018-05-15T16:23:38.858Z,15.09
2018-05-15T16:26:05.403Z,15.16
2018-05-15T16:28:32.191Z,15.35
2018-05-15T16:30:58.846Z,15.41
2018-05-15T16:33:25.371Z,15.37
2018-05-15T16:35:52.082Z,15.33
2018-05-15T16:38:18.631Z,15.37
2018-05-15T16:40:45.214Z,15.28
2018-05-15T16:43:11.887Z,15.26
2018-05-15T16:45:38.380Z,15.27
2018-05-15T16:48:05.256Z,15.23
2018-05-15T16:50:32.431Z,15.28
2018-05-15T16:52:59.505Z,15.28
2018-05-15T16:55:26.121Z,15.22
2018-05-15T16:57:52.697Z,15.15
2018-05-15T17:00:19.406Z,15.23
2018-05-15T17:02:46.027Z,15.16
2018-05-15T17:05:12.485Z,15.09
2018-05-15T17:07:38.924Z,15.09
2018-05-15T17:10:05.367Z,14.97
2018-05-15T17:12:31.881Z,14.97
2018-05-15T17:14:58.739Z,14.78
2018-05-15T17:17:25.336Z,14.87
2018-05-15T17:19:53.554Z,14.68
2018-05-15T17:22:20.251Z,14.72
2018-05-15T17:24:47.268Z,14.77
2018-05-15T17:27:14.360Z,14.68
2018-05-15T17:29:41.182Z,14.64
2018-05-15T17:32:08.299Z,14.62
2018-05-15T17:34:34.872Z,14.63
2018-05-15T17:37:01.589Z,14.64
2018-05-15T17:39:28.247Z,14.59
2018-05-15T17:41:54.849Z,14.55
2018-05-15T17:44:21.511Z,14.59
2018-05-15T17:46:48.071Z,14.60
2018-05-15T17:49:14.706Z,14.68
2018-05-15T17:51:41.543Z,14.54
2018-05-15T17:54:08.217Z,14.60
2018-05-15T17:56:34.900Z,14.67
2018-05-15T17:59:01.493Z,14.76
2018-05-15T18:01:28.316Z,14.78
2018-05-15T18:03:54.956Z,14.78
2018-05-15T18:06:21.790Z,14.69
2018-05-15T18:08:48.329Z,14.66
2018-05-15T18:11:15.130Z,14.78
2018-05-15T18:13:41.540Z,14.75
2018-05-15T18:16:08.351Z,14.71
2018-05-15T18:18:34.986Z,14.78
2018-05-15T18:21:01.613Z,14.88
2018-05-15T18:23:28.735Z,14.82
2018-05-15T18:25:55.419Z,14.79
2018-05-15T18:28:22.254Z,14.77
2018-05-15T18:30:48.911Z,14.82
2018-05-15T18:33:15.644Z,14.82
2018-05-15T18:35:42.305Z,14.79
2018-05-15T18:38:09.087Z,14.79
2018-05-15T18:40:35.815Z,14.80
2018-05-15T18:43:02.574Z,14.82
2018-05-15T18:45:29.268Z,14.91
2018-05-15T18:47:56.595Z,14.80
2018-05-15T18:50:23.293Z,14.73
2018-05-15T18:52:50.262Z,14.76
2018-05-15T18:55:16.899Z,14.71
2018-05-15T18:57:43.370Z,14.71
2018-05-15T19:00:09.816Z,14.78
2018-05-15T19:02:36.471Z,14.78
2018-05-15T19:05:03.000Z,14.75
2018-05-15T19:07:29.672Z,14.90
2018-05-15T19:09:56.718Z,14.85
2018-05-15T19:12:23.343Z,14.84
2018-05-15T19:14:50.673Z,14.81
2018-05-15T19:17:17.570Z,14.78
2018-05-15T19:19:44.230Z,14.82
2018-05-15T19:22:11.886Z,14.79
2018-05-15T19:24:38.793Z,14.87
2018-05-15T19:27:05.529Z,14.76
2018-05-15T19:29:32.125Z,14.72
2018-05-15T19:34:55.779Z,14.73
2018-05-15T19:37:22.238Z,14.82
2018-05-15T19:39:49.646Z,14.76
2018-05-15T19:42:16.274Z,14.65
2018-05-15T19:44:43.353Z,14.68
2018-05-15T19:47:10.045Z,14.64
2018-05-15T19:49:36.668Z,14.62
2018-05-15T19:52:04.383Z,14.61
2018-05-15T19:54:31.701Z,14.61
2018-05-15T19:56:58.616Z,14.59
2018-05-15T19:59:25.268Z,14.64
2018-05-15T20:01:51.912Z,14.49
2018-05-15T20:04:18.575Z,14.42
2018-05-15T20:06:45.101Z,14.44
2018-05-15T20:09:11.657Z,14.44
2018-05-15T20:11:38.992Z,14.50
2018-05-15T20:14:06.116Z,14.40
2018-05-15T20:16:32.823Z,14.44
2018-05-15T20:18:59.471Z,14.32
2018-05-15T20:21:25.985Z,14.26
2018-05-15T20:23:52.562Z,14.15
2018-05-15T20:26:19.172Z,14.27
2018-05-15T20:28:45.907Z,14.15
2018-05-15T20:31:12.350Z,14.12
2018-05-15T20:33:38.907Z,14.10
2018-05-15T20:36:05.409Z,14.07
2018-05-15T20:38:32.052Z,13.93
2018-05-15T20:40:58.559Z,13.85
2018-05-15T20:43:25.438Z,13.83
2018-05-15T20:45:52.132Z,13.93
2018-05-15T20:48:18.603Z,13.92
2018-05-15T20:50:45.267Z,13.85
2018-05-15T20:53:11.742Z,13.85
2018-05-15T20:55:38.390Z,13.92
2018-05-15T20:58:06.277Z,13.98
2018-05-15T21:00:32.802Z,14.30
2018-05-15T21:02:59.281Z,14.34
2018-05-15T21:05:25.847Z,14.31
2018-05-15T21:07:53.034Z,14.33
2018-05-15T21:10:19.541Z,14.50
2018-05-15T21:12:45.987Z,14.67
2018-05-15T21:15:12.428Z,14.59
2018-05-15T21:17:38.690Z,14.58
2018-05-15T21:20:05.353Z,14.62
2018-05-15T21:22:32.195Z,14.58
2018-05-15T21:24:58.569Z,14.66
2018-05-15T21:27:24.966Z,14.67
2018-05-15T21:29:51.422Z,14.87
2018-05-15T21:32:17.794Z,14.73
2018-05-15T21:34:44.190Z,14.64
2018-05-15T21:37:10.609Z,14.60
2018-05-15T21:39:36.991Z,14.56
2018-05-15T21:42:03.422Z,14.54
2018-05-15T21:44:29.770Z,14.69
2018-05-15T21:46:56.223Z,14.58
2018-05-15T21:49:22.714Z,14.61
2018-05-15T21:51:49.251Z,14.58
2018-05-15T21:54:15.648Z,14.56
2018-05-15T21:56:42.292Z,14.47
2018-05-15T21:59:08.876Z,14.56
2018-05-15T22:01:35.395Z,14.75
2018-05-15T22:04:01.976Z,14.63
2018-05-15T22:06:28.489Z,14.48
2018-05-15T22:08:55.093Z,14.44
2018-05-15T22:11:21.281Z,14.42
2018-05-15T22:13:59.939Z,14.46
2018-05-15T22:16:38.632Z,14.37
2018-05-15T22:19:17.096Z,14.43
2018-05-15T22:21:55.803Z,14.61
2018-05-15T22:24:25.408Z,14.45
2018-05-15T22:26:51.796Z,14.76
2018-05-15T22:29:18.318Z,14.86
2018-05-15T22:31:44.744Z,14.80
2018-05-15T22:34:11.145Z,14.67
2018-05-15T22:36:37.635Z,14.49
2018-05-15T22:39:05.081Z,14.36
2018-05-15T22:41:31.418Z,14.57
2018-05-15T22:43:58.116Z,14.48
2018-05-15T22:46:24.475Z,14.37
2018-05-15T22:48:51.278Z,14.40
2018-05-15T22:51:17.726Z,14.28
2018-05-15T22:53:44.160Z,14.35
2018-05-15T22:56:10.502Z,14.30
2018-05-15T22:58:37.005Z,14.34
2018-05-15T23:01:03.380Z,14.37
2018-05-15T23:03:29.753Z,14.38
2018-05-15T23:05:56.146Z,14.39
2018-05-15T23:08:22.592Z,14.34
2018-05-15T23:10:48.936Z,14.24
2018-05-15T23:13:15.371Z,14.17
2018-05-15T23:15:41.717Z,14.14
2018-05-15T23:18:08.118Z,14.13
2018-05-15T23:20:34.536Z,14.16
2018-05-15T23:23:00.954Z,14.18
2018-05-15T23:25:27.333Z,14.29
2018-05-15T23:27:53.766Z,14.48
2018-05-15T23:30:20.154Z,14.52
2018-05-15T23:32:46.604Z,14.77
2018-05-15T23:35:13.044Z,14.92
2018-05-15T23:37:39.445Z,14.70
2018-05-15T23:40:05.941Z,14.54
2018-05-15T23:42:32.394Z,14.61
2018-05-15T23:44:58.752Z,14.71
2018-05-15T23:47:25.123Z,14.66
2018-05-15T23:49:51.560Z,14.65
2018-05-15T23:52:17.949Z,14.72
2018-05-15T23:54:44.425Z,14.67
2018-05-15T23:57:10.830Z,14.60
2018-05-15T23:59:37.311Z,14.66
